CST,Max TemperatureF,Mean TemperatureF,Min TemperatureF,Max Dew PointF,MeanDew PointF,Min DewpointF,Max Humidity, Mean Humidity, Min Humidity, Max Sea Level PressureIn, Mean Sea Level PressureIn, Min Sea Level PressureIn, Max VisibilityMiles, Mean VisibilityMiles, Min VisibilityMiles, Max Wind SpeedMPH, Mean Wind SpeedMPH, Max Gust SpeedMPH,PrecipitationIn, CloudCover, Events, WindDirDegrees
2012-12-1,55,45,35,52,43,34,94,89,76,30.16,29.99,29.85,10,6,2,14,6,21,0.00,8,Rain,154
2012-12-2,53,45,37,52,45,36,100,91,72,30.07,29.95,29.84,10,5,2,12,8,18,0.00,6,Rain,196
2012-12-3,62,52,41,59,49,41,100,93,76,30.05,29.87,29.73,10,5,0,18,8,22,0.00,7,Fog-Rain,175
2012-12-4,51,40,28,43,29,14,93,67,44,30.31,30.09,29.91,10,10,10,22,10,31,0.00,1,,293
2012-12-5,33,26,19,28,20,14,93,75,59,30.44,30.32,30.20,10,10,10,12,7,17,0.00,1,,85
2012-12-6,41,36,30,36,32,27,87,82,75,30.20,30.00,29.87,10,10,10,17,9,16,0.00,5,,189
2012-12-7,39,36,32,34,30,27,93,84,70,29.98,29.94,29.91,10,10,10,13,6,,0.00,6,,343
2012-12-8,35,32,30,32,29,27,100,88,75,30.12,30.02,29.91,10,9,2,9,6,,0.00,7,Snow,25
2012-12-9,33,32,30,34,31,28,100,93,81,30.10,29.89,29.67,10,6,1,15,9,20,0.00,8,Rain-Snow,84
2012-12-10,32,29,26,32,26,21,100,89,74,29.93,29.80,29.66,10,9,3,14,9,20,0.00,8,,291
2012-12-11,32,26,19,25,21,12,100,76,51,30.08,29.97,29.91,10,10,7,16,6,25,0.00,7,Snow,222
2012-12-12,42,34,26,27,25,21,80,72,46,30.22,30.16,30.09,10,10,10,15,9,21,0.00,3,,199
2012-12-13,44,37,30,27,25,21,86,72,42,30.21,30.14,30.05,10,10,10,15,9,23,0.00,0,,198
2012-12-14,44,34,23,36,29,21,100,88,57,30.20,30.11,30.01,10,10,7,9,2,,0.00,1,,111
2012-12-15,44,40,35,45,38,32,100,92,75,30.00,29.74,29.55,10,7,2,17,7,23,0.00,7,Rain,151
2012-12-16,42,38,33,43,37,32,100,96,87,29.71,29.61,29.53,10,6,0,17,6,21,0.00,8,Rain,249
2012-12-17,33,28,24,32,26,23,93,89,86,29.73,29.71,29.68,10,9,7,14,7,,0.00,8,,301
2012-12-18,32,28,23,32,27,23,100,95,86,29.82,29.72,29.63,10,5,0,9,4,,0.00,8,Snow,304
2012-12-19,33,28,23,32,28,23,100,96,81,30.05,29.96,29.82,7,4,1,13,7,17,0.04,7,Snow,332
2012-12-20,35,32,30,36,32,30,100,97,93,29.85,29.44,29.14,5,2,0,34,14,41,0.37,8,Rain-Snow,18
2012-12-21,32,24,15,30,19,12,100,88,79,30.16,29.89,29.46,10,8,2,29,22,40,0.00,5,Snow,302
2012-12-22,26,18,10,19,13,9,93,83,59,30.17,30.07,29.93,10,10,10,12,7,16,0.00,1,,252
2012-12-23,24,19,14,19,16,10,100,91,79,30.05,29.98,29.91,10,9,7,12,5,,0.00,3,,309
2012-12-24,24,22,19,21,19,18,93,90,86,30.11,29.99,29.90,10,10,10,12,5,,0.00,8,,325
2012-12-25,23,18,12,21,15,12,100,87,68,30.33,30.25,30.12,10,10,10,9,6,,0.00,4,,328
2012-12-26,28,26,23,23,20,19,93,83,74,30.25,30.15,30.06,10,10,10,18,10,23,0.00,8,,7
2012-12-27,26,24,23,21,20,19,93,85,74,30.19,30.14,30.10,10,10,7,12,7,,0.00,8,,344
2012-12-28,28,26,23,27,25,21,100,94,86,30.11,30.00,29.88,10,6,1,8,3,,0.00,8,Snow,62
2012-12-29,26,22,17,27,21,14,100,93,80,30.16,29.98,29.86,10,6,1,17,8,18,0.00,8,Snow,284
2012-12-30,32,19,6,23,14,5,100,85,69,30.28,30.15,29.98,10,9,2,15,9,22,0.00,2,Snow,220
2012-12-31,32,20,8,23,16,3,93,79,69,30.14,30.02,29.93,10,10,7,18,12,29,0.00,1,,273